Stations météo

réclame
Mon MeteoGroup
Zugspitze, Allemagne (10961): Température de l'air & dewpoint: 19.09.2018 23:00:00 - 25.09.2018 23:00:00 (CEST)Zugspitze, Allemagne (10961): Vitesse du vent & gusts: 19.09.2018 23:00:00 - 25.09.2018 23:00:00 (CEST)Zugspitze, Allemagne (10961): Direction du vent: 19.09.2018 23:00:00 - 25.09.2018 23:00:00 (CEST)Zugspitze, Allemagne (10961): visibility: 19.09.2018 23:00:00 - 25.09.2018 23:00:00 (CEST)Zugspitze, Allemagne (10961): Ensoleillement: 19.09.2018 23:00:00 - 25.09.2018 23:00:00 (CEST)
Date & Time tt [°C] td [°C] ff [km/h] ff [knt] fx [km/h] fx [knt] dd vv [km] sd [min]
25.09.2018 23:00:00 -1,0 -25,1 19 11 36 19 N 75 0
25.09.2018 22:00:00 -1,7 -22,6 20 11 27 15 NNW 75 0
25.09.2018 21:00:00 -1,6 -21,6 16 9 23 13 NNW 75 0
25.09.2018 20:00:00 -3,6 -20,8 9 5 16 8 N 75 21
25.09.2018 19:00:00 -3,5 -21,3 6 3 12 7 NNW 75 60
25.09.2018 18:00:00 -4,3 -21,6 10 5 19 10 N 75 60
25.09.2018 17:00:00 -3,8 -20,5 12 6 16 9 NNW 75 60
25.09.2018 16:00:00 -4,9 -23,1 8 4 14 8 NNW 75 60
25.09.2018 15:00:00 -4,7 -23,4 11 6 21 11 N 56 60
25.09.2018 14:00:00 -4,9 -22,6 16 9 21 11 N 75 60
25.09.2018 13:00:00 -5,7 -22,6 5 3 12 7 NNW 75 60
25.09.2018 12:00:00 -7,1 -20,0 6 3 14 7 N 65 60
25.09.2018 11:00:00 -7,7 -21,0 9 5 15 8 N 75 60
25.09.2018 10:00:00 -7,2 -20,5 8 4 17 9 NNW 69 60
25.09.2018 09:00:00 -7,6 -21,0 12 7 24 13 N 59 60
25.09.2018 08:00:00 -8,2 -18,2 14 8 24 13 N 75 43
25.09.2018 07:00:00 -8,8 -17,8 11 6 29 16 N 75 0
25.09.2018 06:00:00 -9,1 -17,6 21 12 31 17 NNW 75 0
25.09.2018 05:00:00 -9,2 -15,7 22 12 31 17 NNW 75 0
25.09.2018 04:00:00 -10,5 -16,3 16 9 22 12 NNW 75 0
25.09.2018 03:00:00 -11,2 -13,9 14 7 23 12 NNW 75 0
25.09.2018 02:00:00 -11,3 -13,6 16 9 24 13 NNW 75 0
25.09.2018 01:00:00 -10,5 -11,9 12 7 23 13 NNW 15 0
25.09.2018 00:00:00 -9,7 -10,7 8 4 21 11 NNW 0,1 0
24.09.2018 23:00:00 -9,6 -10,7 8 5 24 13 NNW 0,1 0
24.09.2018 22:00:00 -11,0 -13,7 16 8 26 14 NNW 75 0
24.09.2018 21:00:00 -9,3 -10,5 13 7 23 12 NNW 0,1 0
24.09.2018 20:00:00 -8,5 -9,5 9 5 26 14 NNW - 0
24.09.2018 19:00:00 -8,2 -9,2 8 4 15 8 NNW - 15
24.09.2018 18:00:00 -7,7 -8,6 9 5 33 18 NNW - 0
24.09.2018 17:00:00 -8,0 -8,9 11 6 30 16 NNW 0,1 39
24.09.2018 16:00:00 -8,6 -10,0 12 7 26 14 NNW 0,1 42
24.09.2018 15:00:00 -8,7 -10,3 15 8 30 16 NNW 0,6 49
24.09.2018 14:00:00 -8,1 -9,4 9 5 28 15 NNW 0,1 46
24.09.2018 13:00:00 -8,1 -9,4 14 7 30 16 N 0,1 42
24.09.2018 12:00:00 -7,9 -9,1 18 10 37 20 NNW 0,1 6
24.09.2018 11:00:00 -7,7 -8,8 16 9 34 19 NNW 0,1 0
24.09.2018 10:00:00 -7,5 -8,5 22 12 34 18 NNW 0,1 0
24.09.2018 09:00:00 -7,0 -7,9 16 9 34 18 NNW 0,1 0
24.09.2018 08:00:00 -6,7 -7,5 18 10 39 21 NNW 0,1 0
24.09.2018 07:00:00 -6,3 -6,9 17 9 33 18 NNW 0,1 0
24.09.2018 06:00:00 -5,7 -6,3 16 9 34 18 NNW 0,1 0
24.09.2018 05:00:00 -5,3 -5,9 14 7 27 15 NNW 0,1 0
24.09.2018 04:00:00 -4,2 -4,7 18 10 43 23 NNW 0,1 0
24.09.2018 03:00:00 -3,9 -4,5 21 12 46 25 WNW 0,1 0
24.09.2018 02:00:00 -3,2 -3,6 19 10 40 22 NW 0,2 0
24.09.2018 01:00:00 -1,9 -2,1 21 11 46 25 NNW 0,1 0
24.09.2018 00:00:00 -1,1 -1,2 18 10 54 29 NNW 0,1 0
23.09.2018 23:00:00 0,4 0,2 19 11 97 52 NNW 0,1 0
23.09.2018 22:00:00 5,4 5,2 25 14 86 46 NNW - 0
23.09.2018 21:00:00 5,8 4,3 34 18 75 40 WSW 75 0
23.09.2018 20:00:00 6,6 3,2 37 20 98 53 WSW 75 4
23.09.2018 19:00:00 7,4 2,1 53 29 97 53 WSW 75 43
23.09.2018 18:00:00 7,6 2,7 50 27 99 54 WSW 74 26
23.09.2018 17:00:00 7,2 3,1 48 26 95 51 WSW 75 0
23.09.2018 16:00:00 6,8 4,2 40 22 79 43 WSW 75 0
23.09.2018 15:00:00 6,6 4,1 42 23 84 45 WSW 75 0
23.09.2018 14:00:00 5,8 4,5 50 27 87 47 WSW 67 0
23.09.2018 13:00:00 5,4 5,3 48 26 81 44 WSW 75 10
23.09.2018 12:00:00 5,0 5,0 45 24 90 49 WSW 0,1 0
23.09.2018 11:00:00 4,9 4,9 48 26 86 46 WSW 0,1 0
23.09.2018 10:00:00 4,8 4,8 38 21 81 44 WSW 0,1 0
23.09.2018 09:00:00 4,8 4,7 43 23 84 46 WSW 0,1 0
23.09.2018 08:00:00 4,9 4,9 38 20 72 39 W 0,1 0
23.09.2018 07:00:00 5,0 5,0 32 17 72 39 W 0,1 0
23.09.2018 06:00:00 4,9 4,8 36 20 70 38 NW 0,1 0
23.09.2018 05:00:00 4,9 4,8 44 24 74 40 NW 0,1 0
23.09.2018 04:00:00 4,6 4,6 35 19 87 47 WNW 0,1 0
23.09.2018 03:00:00 4,2 4,1 44 24 93 50 WSW 0,1 0
23.09.2018 02:00:00 3,8 3,7 55 30 97 53 WSW 0,1 0
23.09.2018 01:00:00 3,0 3,0 39 21 77 42 WSW 0,1 0
23.09.2018 00:00:00 3,0 2,9 47 26 117 63 WSW 0,1 0
22.09.2018 23:00:00 1,3 1,3 28 15 96 52 W - 0
22.09.2018 22:00:00 1,6 1,5 51 28 78 42 WSW 0,1 0
22.09.2018 21:00:00 0,8 0,6 31 17 63 34 W 0,4 0
22.09.2018 20:00:00 1,4 -0,2 42 23 75 41 WSW 75 0
22.09.2018 19:00:00 0,6 -1,3 31 17 71 38 W 75 9
22.09.2018 18:00:00 1,7 -2,2 49 26 85 46 WSW 75 11
22.09.2018 17:00:00 1,1 -3,5 53 29 79 43 WSW 75 0
22.09.2018 16:00:00 0,8 -5,1 51 28 72 39 WSW 75 45
22.09.2018 15:00:00 -0,5 -7,4 48 26 81 44 WSW 75 35
22.09.2018 14:00:00 -2,8 -9,4 48 26 79 42 WSW 75 20
22.09.2018 13:00:00 -4,2 -8,0 46 25 77 41 WSW 72 55
22.09.2018 12:00:00 -4,8 -6,5 45 24 77 42 WSW 75 38
22.09.2018 11:00:00 -4,9 -5,6 39 21 64 35 WSW 75 28
22.09.2018 10:00:00 -3,1 -3,5 32 17 66 36 W 1,0 60
22.09.2018 09:00:00 -2,7 -3,0 40 21 63 34 WSW 2,2 11
22.09.2018 08:00:00 -2,3 -2,5 37 20 52 28 WSW 0,1 0
22.09.2018 07:00:00 -1,5 -1,6 30 16 64 35 WSW 0,1 0
22.09.2018 06:00:00 -1,4 -1,6 43 23 67 36 WSW 0,1 0
22.09.2018 05:00:00 -1,7 -1,7 33 18 59 32 W 0,1 0
22.09.2018 04:00:00 0,6 0,6 37 20 50 27 WSW 0,1 0
22.09.2018 03:00:00 0,8 0,8 24 13 51 27 WSW 0,1 0
22.09.2018 02:00:00 1,7 1,7 34 18 57 31 WSW 0,2 0
22.09.2018 01:00:00 1,4 1,4 19 11 36 19 WSW 0,1 0
22.09.2018 00:00:00 2,5 2,5 10 5 47 25 WSW 0,1 0
21.09.2018 23:00:00 3,3 3,1 11 6 40 22 NW - 0
21.09.2018 22:00:00 4,4 4,3 4 2 20 11 NW - 0
21.09.2018 21:00:00 4,7 4,6 13 7 34 18 SSE - 0
21.09.2018 20:00:00 5,1 3,7 7 4 30 16 SW 3,7 0
21.09.2018 19:00:00 6,3 2,0 16 9 35 19 WSW 72 0
21.09.2018 18:00:00 6,7 1,5 22 12 39 21 WSW 72 6
21.09.2018 17:00:00 7,0 2,9 16 9 25 14 SW 61 1
21.09.2018 16:00:00 7,4 3,5 11 6 29 16 SE 52 52
21.09.2018 15:00:00 8,6 3,7 16 9 24 13 SSE 58 56
21.09.2018 14:00:00 7,8 2,2 16 9 28 15 SSE 47 58
21.09.2018 13:00:00 8,2 1,7 16 9 28 15 SSE 75 60
21.09.2018 12:00:00 6,9 1,1 13 7 27 15 SSE 52 60
21.09.2018 11:00:00 5,9 1,0 22 12 34 18 WSW 60 60
21.09.2018 10:00:00 5,2 0,8 26 14 35 19 WSW 51 60
21.09.2018 09:00:00 5,0 1,1 21 11 41 22 WSW 54 60
21.09.2018 08:00:00 5,0 1,2 23 13 43 23 WSW 53 41
21.09.2018 07:00:00 4,7 1,0 17 9 34 19 WSW 55 0
21.09.2018 06:00:00 5,1 -0,6 17 9 41 22 WSW 69 0
21.09.2018 05:00:00 5,4 -0,6 33 18 50 27 WSW 68 0
21.09.2018 04:00:00 5,1 0,3 27 14 44 24 WSW 75 0
21.09.2018 03:00:00 5,3 0,0 23 12 38 20 SW 75 0
21.09.2018 02:00:00 5,4 -0,1 22 12 35 19 SW 63 0
21.09.2018 01:00:00 5,6 0,0 24 13 33 18 SW 75 0
21.09.2018 00:00:00 5,6 -0,1 19 10 28 15 SW 75 0
20.09.2018 23:00:00 5,7 -0,2 16 9 29 16 WSW 75 0
20.09.2018 22:00:00 6,0 -0,5 17 9 27 15 WSW 73 0
20.09.2018 21:00:00 6,4 -1,2 19 11 26 14 SSW 75 0
20.09.2018 20:00:00 5,7 -1,4 16 9 21 11 SE 75 20
20.09.2018 19:00:00 7,1 3,2 14 7 16 9 SSE 50 60
20.09.2018 18:00:00 8,1 3,2 10 5 18 10 S 65 60
20.09.2018 17:00:00 7,4 2,7 12 7 19 10 SE 62 60
20.09.2018 16:00:00 7,4 2,0 11 6 22 12 SE 75 60
20.09.2018 15:00:00 6,6 1,0 13 7 22 12 ESE 61 60
20.09.2018 14:00:00 7,0 0,2 11 6 19 10 ESE 75 60
20.09.2018 13:00:00 6,4 1,8 11 6 19 11 ESE 75 60
20.09.2018 12:00:00 5,8 -0,5 7 4 17 9 ESE 75 60
20.09.2018 11:00:00 5,6 -1,3 8 4 13 7 SE 73 60
20.09.2018 10:00:00 5,7 -3,2 5 3 8 5 SE 75 60
20.09.2018 09:00:00 6,4 -4,2 6 4 9 5 E 75 60
20.09.2018 08:00:00 4,9 -4,8 6 4 9 5 NNE 69 44
20.09.2018 07:00:00 4,2 -5,4 8 4 11 6 N 75 0
20.09.2018 06:00:00 3,5 -3,7 9 5 13 7 N 75 0
20.09.2018 05:00:00 3,5 -3,8 11 6 14 8 N - 0
20.09.2018 04:00:00 4,0 -4,9 9 5 14 7 N - 0
20.09.2018 03:00:00 4,2 -5,4 8 4 15 8 N - 0
20.09.2018 02:00:00 4,3 -5,4 11 6 13 7 NNW - 0
20.09.2018 01:00:00 3,8 -3,5 10 5 17 9 N - 0
20.09.2018 00:00:00 3,8 -3,0 16 8 21 11 NNW - 0
19.09.2018 23:00:00 3,9 -1,8 13 7 17 9 NNW - 0

tt = Température de l'air
td = dewpoint
ff = Vitesse du vent
fx = gusts
dd = Direction du vent
vv = visibility
sd = Ensoleillement

stations d'obs. à proximité